createdAt,value
2019-01-26T00:01:29.590Z,89.33
2019-01-26T00:04:15.313Z,99.53
2019-01-26T00:07:15.525Z,91.47
2019-01-26T00:09:47.548Z,93.03
2019-01-26T00:12:19.630Z,89.93
2019-01-26T00:14:51.601Z,93.70
2019-01-26T00:17:23.626Z,100.40
2019-01-26T00:19:55.579Z,85.83
2019-01-26T00:22:27.663Z,86.90
2019-01-26T00:24:59.726Z,90.00
2019-01-26T00:27:33.881Z,88.33
2019-01-26T00:30:06.725Z,84.50
2019-01-26T00:32:38.720Z,83.83
2019-01-26T00:35:10.756Z,85.10
2019-01-26T00:37:42.774Z,90.73
2019-01-26T00:40:15.735Z,88.70
2019-01-26T00:43:01.281Z,82.87
2019-01-26T00:45:33.321Z,83.97
2019-01-26T00:48:05.280Z,92.00
2019-01-26T00:50:37.267Z,82.50
2019-01-26T00:53:09.242Z,89.73
2019-01-26T00:55:41.288Z,82.10
2019-01-26T00:58:13.274Z,74.97
2019-01-26T01:00:45.302Z,87.10
2019-01-26T01:03:17.336Z,84.03
2019-01-26T01:05:49.275Z,79.30
2019-01-26T01:08:21.335Z,80.00
2019-01-26T01:10:53.294Z,82.30
2019-01-26T01:13:25.315Z,81.37
2019-01-26T01:15:57.292Z,79.43
2019-01-26T01:18:29.278Z,79.97
2019-01-26T01:21:01.902Z,83.37
2019-01-26T01:23:34.046Z,84.17
2019-01-26T01:26:06.129Z,83.63
2019-01-26T01:28:38.174Z,84.30
2019-01-26T01:31:10.150Z,82.20
2019-01-26T01:33:42.097Z,83.13
2019-01-26T01:36:14.119Z,84.87
2019-01-26T01:38:46.148Z,81.37
2019-01-26T01:41:18.144Z,82.00
2019-01-26T01:43:50.114Z,85.90
2019-01-26T01:46:25.386Z,82.63
2019-01-26T01:48:57.388Z,91.33
2019-01-26T01:51:29.393Z,88.93
2019-01-26T01:54:02.117Z,82.93
2019-01-26T01:56:34.713Z,86.00
2019-01-26T01:59:08.994Z,82.00
2019-01-26T02:01:40.996Z,85.93
2019-01-26T02:04:12.988Z,87.57
2019-01-26T02:07:17.499Z,86.50
2019-01-26T02:09:55.821Z,81.40
2019-01-26T02:12:33.590Z,86.20
2019-01-26T02:15:06.003Z,84.43
2019-01-26T02:17:37.974Z,85.90
2019-01-26T02:20:13.168Z,78.40
2019-01-26T02:22:48.486Z,86.63
2019-01-26T02:25:21.141Z,87.90
2019-01-26T02:27:53.132Z,86.30
2019-01-26T02:30:39.149Z,77.90
2019-01-26T02:33:11.109Z,73.87
2019-01-26T02:35:43.200Z,77.63
2019-01-26T02:38:15.188Z,76.43
2019-01-26T02:40:53.766Z,81.63
2019-01-26T02:43:29.175Z,76.77
2019-01-26T02:46:01.318Z,82.60
2019-01-26T02:48:33.367Z,82.13
2019-01-26T02:51:05.445Z,97.93
2019-01-26T02:53:37.459Z,116.87
2019-01-26T02:56:09.478Z,108.83
2019-01-26T02:58:41.526Z,96.33
2019-01-26T03:01:19.267Z,80.50
2019-01-26T03:03:56.033Z,97.40
2019-01-26T03:06:28.122Z,91.53
2019-01-26T03:09:00.195Z,83.67
2019-01-26T03:11:36.688Z,85.23
2019-01-26T03:14:12.058Z,87.23
2019-01-26T03:16:47.173Z,79.57
2019-01-26T03:19:19.180Z,83.03
2019-01-26T03:21:51.131Z,81.93
2019-01-26T03:24:23.187Z,85.13
2019-01-26T03:26:55.257Z,87.17
2019-01-26T03:29:31.488Z,86.67
2019-01-26T03:32:03.433Z,88.03
2019-01-26T03:34:35.381Z,86.67
2019-01-26T03:37:07.421Z,83.53
2019-01-26T03:39:39.388Z,89.77
2019-01-26T03:42:11.422Z,82.77
2019-01-26T03:44:43.383Z,87.77
2019-01-26T03:47:15.380Z,83.37
2019-01-26T03:49:47.429Z,81.20
2019-01-26T03:52:19.469Z,82.00
2019-01-26T03:54:51.416Z,85.60
2019-01-26T03:57:23.439Z,86.13
2019-01-26T03:59:55.438Z,91.57
2019-01-26T04:02:27.469Z,76.60
2019-01-26T04:04:59.443Z,88.23
2019-01-26T04:07:31.431Z,77.23
2019-01-26T04:10:03.424Z,78.73
2019-01-26T04:12:35.491Z,84.20
2019-01-26T04:15:11.860Z,80.80
2019-01-26T04:17:44.233Z,73.47
2019-01-26T04:20:18.314Z,79.83
2019-01-26T04:22:50.330Z,82.73
2019-01-26T04:25:22.333Z,79.47
2019-01-26T04:27:54.331Z,78.90
2019-01-26T04:30:26.308Z,86.60
2019-01-26T04:32:58.347Z,80.93
2019-01-26T04:35:30.323Z,83.70
2019-01-26T04:38:02.288Z,89.20
2019-01-26T04:40:34.392Z,79.63
2019-01-26T04:43:06.411Z,88.47
2019-01-26T04:45:39.698Z,80.40
2019-01-26T04:48:11.661Z,82.33
2019-01-26T04:50:43.628Z,84.80
2019-01-26T04:53:31.735Z,76.80
2019-01-26T04:56:03.702Z,83.47
2019-01-26T04:58:35.808Z,71.03
2019-01-26T05:01:07.896Z,83.70
2019-01-26T05:03:42.982Z,76.20
2019-01-26T05:06:14.996Z,73.30
2019-01-26T05:08:47.200Z,77.60
2019-01-26T05:11:19.159Z,78.93
2019-01-26T05:13:51.417Z,78.27
2019-01-26T05:16:23.491Z,73.23
2019-01-26T05:18:55.444Z,88.93
2019-01-26T05:21:27.379Z,85.03
2019-01-26T05:23:59.421Z,76.70
2019-01-26T05:26:31.468Z,86.50
2019-01-26T05:29:03.475Z,80.43
2019-01-26T05:31:35.561Z,80.07
2019-01-26T05:34:07.549Z,78.80
2019-01-26T05:36:40.617Z,80.23
2019-01-26T05:39:12.924Z,88.33
2019-01-26T05:41:44.964Z,80.17
2019-01-26T05:44:16.915Z,76.80
2019-01-26T05:46:48.912Z,79.47
2019-01-26T05:49:20.868Z,87.60
2019-01-26T05:51:52.914Z,86.60
2019-01-26T05:54:24.907Z,85.87
2019-01-26T05:56:56.988Z,80.57
2019-01-26T05:59:29.151Z,88.33
2019-01-26T06:02:01.381Z,94.00
2019-01-26T06:04:33.368Z,94.17
2019-01-26T06:07:05.412Z,98.93
2019-01-26T06:09:37.378Z,81.57
2019-01-26T06:12:09.502Z,88.10
2019-01-26T06:14:41.589Z,110.90
2019-01-26T06:17:13.589Z,87.27
2019-01-26T06:19:45.544Z,83.73
2019-01-26T06:22:17.537Z,84.10
2019-01-26T06:24:49.486Z,89.87
2019-01-26T06:27:21.598Z,86.20
2019-01-26T06:29:53.645Z,88.03
2019-01-26T06:32:25.834Z,87.37
2019-01-26T06:34:57.781Z,97.70
2019-01-26T06:37:29.811Z,101.40
2019-01-26T06:40:01.825Z,99.57
2019-01-26T06:42:33.784Z,98.53
2019-01-26T06:45:06.183Z,96.63
2019-01-26T06:47:38.194Z,88.90
2019-01-26T06:50:13.067Z,100.47
2019-01-26T06:52:45.131Z,106.87
2019-01-26T06:55:17.153Z,116.37
2019-01-26T06:57:49.112Z,114.37
2019-01-26T07:00:27.394Z,122.93
2019-01-26T07:02:59.418Z,111.63
2019-01-26T07:05:56.158Z,98.67
2019-01-26T07:08:28.139Z,92.63
2019-01-26T07:11:00.154Z,85.27
2019-01-26T07:13:32.294Z,97.27
2019-01-26T07:16:04.289Z,100.60
2019-01-26T07:18:36.434Z,98.43
2019-01-26T07:21:08.488Z,100.93
2019-01-26T07:23:40.534Z,103.10
2019-01-26T07:26:12.554Z,90.13
2019-01-26T07:28:44.526Z,90.67
2019-01-26T07:31:16.593Z,93.10
2019-01-26T07:33:48.621Z,83.13
2019-01-26T07:36:20.697Z,76.87
2019-01-26T07:38:52.675Z,82.70
2019-01-26T07:41:24.617Z,84.60
2019-01-26T07:43:59.559Z,79.20
2019-01-26T07:46:31.523Z,72.87
2019-01-26T07:49:03.500Z,86.97
2019-01-26T07:51:35.501Z,79.43
2019-01-26T07:54:07.539Z,138.93
2019-01-26T07:56:39.602Z,98.97
2019-01-26T07:59:11.650Z,151.93
2019-01-26T08:01:43.614Z,87.23
2019-01-26T08:04:15.640Z,72.30
2019-01-26T08:06:49.240Z,67.63
2019-01-26T08:09:24.296Z,82.50
2019-01-26T08:11:56.282Z,88.30
2019-01-26T08:14:28.205Z,73.07
2019-01-26T08:17:00.225Z,70.33
2019-01-26T08:19:32.223Z,75.67
2019-01-26T08:22:04.228Z,69.47
2019-01-26T08:24:36.213Z,63.40
2019-01-26T08:27:08.442Z,60.73
2019-01-26T08:29:40.567Z,61.80
2019-01-26T08:32:13.623Z,67.97
2019-01-26T08:34:45.730Z,71.17
2019-01-26T08:37:17.729Z,72.57
2019-01-26T08:39:49.717Z,63.23
2019-01-26T08:42:21.689Z,61.80
2019-01-26T08:44:53.815Z,61.83
2019-01-26T08:50:54.734Z,72.70
2019-01-26T08:53:26.818Z,65.53
2019-01-26T08:55:58.802Z,65.90
2019-01-26T08:58:30.935Z,66.87
2019-01-26T09:01:02.959Z,62.83
2019-01-26T09:03:48.065Z,62.93
2019-01-26T09:06:30.156Z,63.60
2019-01-26T09:09:03.412Z,68.00
2019-01-26T09:11:36.039Z,64.80
2019-01-26T09:14:09.600Z,70.77
2019-01-26T09:16:41.666Z,64.43
2019-01-26T09:19:13.783Z,68.07
2019-01-26T09:21:47.597Z,73.17
2019-01-26T09:24:19.755Z,66.23
2019-01-26T09:26:51.762Z,71.47
2019-01-26T09:29:24.237Z,69.30
2019-01-26T09:31:56.217Z,71.63
2019-01-26T09:34:28.221Z,70.50
2019-01-26T09:37:00.374Z,67.60
2019-01-26T09:39:32.453Z,85.30
2019-01-26T09:42:04.506Z,73.07
2019-01-26T09:44:36.990Z,83.37
2019-01-26T09:47:08.942Z,79.30
2019-01-26T09:49:40.896Z,86.93
2019-01-26T09:52:12.941Z,94.27
2019-01-26T09:54:44.880Z,99.00
2019-01-26T09:57:16.962Z,100.17
2019-01-26T09:59:48.914Z,105.23
2019-01-26T10:02:20.902Z,127.73
2019-01-26T10:04:52.995Z,89.23
2019-01-26T10:07:25.054Z,80.67
2019-01-26T10:09:57.176Z,77.47
2019-01-26T10:12:29.197Z,91.80
2019-01-26T10:15:01.237Z,78.23
2019-01-26T10:17:33.364Z,72.77
2019-01-26T10:20:07.609Z,76.47
2019-01-26T10:22:39.610Z,65.30
2019-01-26T10:25:12.175Z,62.97
2019-01-26T10:27:44.193Z,75.93
2019-01-26T10:30:24.658Z,74.10
2019-01-26T10:32:57.736Z,67.77
2019-01-26T10:35:47.682Z,69.23
2019-01-26T10:38:19.913Z,62.30
2019-01-26T10:41:09.558Z,65.40
2019-01-26T10:43:45.737Z,67.17
2019-01-26T10:46:17.745Z,59.30
2019-01-26T10:48:49.716Z,69.03
2019-01-26T10:51:21.730Z,62.77
2019-01-26T11:15:09.025Z,77.63
2019-01-26T11:17:41.094Z,79.17
2019-01-26T11:20:13.104Z,87.20
2019-01-26T11:22:45.130Z,80.60
2019-01-26T11:25:17.209Z,77.77
2019-01-26T11:27:49.289Z,80.97
2019-01-26T11:30:22.999Z,79.90
2019-01-26T11:32:55.079Z,75.90
2019-01-26T11:35:27.039Z,78.53
2019-01-26T11:37:59.111Z,72.20
2019-01-26T11:41:09.677Z,71.17
2019-01-26T11:43:42.014Z,69.93
2019-01-26T11:46:25.800Z,75.93
2019-01-26T11:48:58.835Z,72.07
2019-01-26T11:51:38.270Z,70.97
2019-01-26T11:54:10.330Z,66.93
2019-01-26T11:56:51.074Z,67.73
2019-01-26T11:59:23.232Z,75.40
2019-01-26T12:02:17.254Z,73.07
2019-01-26T12:04:53.616Z,75.67
2019-01-26T12:07:28.436Z,75.93
2019-01-26T12:10:00.499Z,72.80
2019-01-26T12:12:32.564Z,74.90
2019-01-26T12:15:05.210Z,79.07
2019-01-26T12:17:37.215Z,81.13
2019-01-26T12:20:12.104Z,74.43
2019-01-26T12:22:44.206Z,76.50
2019-01-26T12:25:16.251Z,83.10
2019-01-26T12:27:48.266Z,90.60
2019-01-26T12:30:21.475Z,85.27
2019-01-26T12:32:53.557Z,80.57
2019-01-26T12:35:41.183Z,91.70
2019-01-26T12:38:11.876Z,89.67
2019-01-26T12:40:43.863Z,82.20
2019-01-26T12:43:16.015Z,83.53
2019-01-26T12:45:52.028Z,90.27
2019-01-26T12:48:26.093Z,92.30
2019-01-26T12:51:08.906Z,83.67
2019-01-26T12:53:49.386Z,87.00
2019-01-26T12:56:24.647Z,89.63
2019-01-26T12:58:58.774Z,81.00
2019-01-26T13:01:30.957Z,88.17
2019-01-26T13:04:03.194Z,77.57
2019-01-26T13:06:35.271Z,76.77
2019-01-26T13:09:10.201Z,78.67
2019-01-26T13:11:44.070Z,76.90
2019-01-26T13:14:16.303Z,81.73
2019-01-26T13:16:48.297Z,79.40
2019-01-26T13:19:20.349Z,81.87
2019-01-26T13:21:52.367Z,80.20
2019-01-26T13:24:24.412Z,71.37
2019-01-26T13:26:56.477Z,79.00
2019-01-26T13:29:28.646Z,66.43
2019-01-26T13:32:00.755Z,74.33
2019-01-26T13:34:34.312Z,68.10
2019-01-26T13:37:12.299Z,76.87
2019-01-26T13:39:50.588Z,76.77
2019-01-26T13:42:34.499Z,72.50
2019-01-26T13:45:34.180Z,75.73
2019-01-26T13:48:06.320Z,82.47
2019-01-26T13:50:38.608Z,68.70
2019-01-26T13:53:10.946Z,75.70
2019-01-26T13:55:43.050Z,79.50
2019-01-26T13:58:15.154Z,77.20
2019-01-26T14:00:47.276Z,67.47
2019-01-26T14:03:19.372Z,83.30
2019-01-26T14:05:51.394Z,81.87
2019-01-26T14:08:23.521Z,77.47
2019-01-26T14:10:55.481Z,86.93
2019-01-26T14:13:27.545Z,82.83
2019-01-26T14:15:59.554Z,88.67
2019-01-26T14:18:31.659Z,84.47
2019-01-26T14:21:59.123Z,84.77
2019-01-26T14:25:00.061Z,88.13
2019-01-26T14:32:42.484Z,82.93
2019-01-26T14:35:18.732Z,87.00
2019-01-26T14:37:54.407Z,82.00
2019-01-26T14:52:48.882Z,90.20
2019-01-26T15:03:53.748Z,88.83
2019-01-26T15:06:52.350Z,95.63
2019-01-26T15:17:39.456Z,88.20
2019-01-26T15:24:22.413Z,88.77
2019-01-26T15:35:01.418Z,86.90
2019-01-26T15:38:51.309Z,91.53
2019-01-26T15:41:51.495Z,96.43
2019-01-26T15:45:28.634Z,90.77
2019-01-26T15:48:55.894Z,83.83
2019-01-26T15:59:37.846Z,86.63
2019-01-26T16:02:48.898Z,96.67
2019-01-26T16:06:24.152Z,95.47
2019-01-26T16:09:28.977Z,85.27
2019-01-26T16:12:27.632Z,92.70
2019-01-26T16:15:53.784Z,93.03
2019-01-26T16:22:38.805Z,93.33
2019-01-26T16:25:47.568Z,90.97
2019-01-26T16:29:17.527Z,96.70
2019-01-26T16:32:49.324Z,90.73
2019-01-26T16:36:25.477Z,95.13
2019-01-26T16:43:19.329Z,112.80
2019-01-26T16:46:30.525Z,116.87
2019-01-26T16:49:41.517Z,115.47
2019-01-26T16:58:27.690Z,120.13
2019-01-26T17:00:42.988Z,122.27
2019-01-26T17:03:54.549Z,123.40
2019-01-26T17:07:12.909Z,120.77
2019-01-26T17:14:57.381Z,115.77
2019-01-26T17:18:13.835Z,116.57
2019-01-26T17:21:45.007Z,122.77
2019-01-26T17:27:59.333Z,127.17
2019-01-26T17:30:51.406Z,166.60
2019-01-26T17:31:23.011Z,117.33
2019-01-26T17:37:22.132Z,216.67
2019-01-26T17:43:25.405Z,238.77
2019-01-26T17:46:14.180Z,229.70
2019-01-26T17:49:17.370Z,235.83
2019-01-26T17:52:06.625Z,238.93
2019-01-26T17:55:53.270Z,262.80
2019-01-26T17:59:28.698Z,207.43
2019-01-26T18:02:00.729Z,208.00
2019-01-26T18:05:19.125Z,207.17
2019-01-26T18:16:25.914Z,265.20
2019-01-26T18:19:11.656Z,202.50
2019-01-26T18:34:06.062Z,231.70
2019-01-26T18:41:23.840Z,227.73
2019-01-26T18:51:54.445Z,211.73
2019-01-26T18:56:04.565Z,227.20
2019-01-26T18:59:05.905Z,212.10
2019-01-26T19:01:46.896Z,166.20
2019-01-26T19:04:29.717Z,191.47
2019-01-26T19:07:06.947Z,199.50
2019-01-26T19:24:51.629Z,159.03
2019-01-26T19:28:06.268Z,138.87
2019-01-26T19:39:50.694Z,128.65
2019-01-26T19:43:09.380Z,124.30
2019-01-26T19:46:20.461Z,117.20
2019-01-26T19:49:11.514Z,115.37
2019-01-26T19:52:33.676Z,107.87
2019-01-26T19:55:26.732Z,128.83
2019-01-26T19:58:34.645Z,137.27
2019-01-26T20:01:09.126Z,149.93
2019-01-26T20:03:44.881Z,148.70
2019-01-26T20:06:22.558Z,146.13
2019-01-26T20:09:15.881Z,150.37
2019-01-26T20:11:50.268Z,147.17
2019-01-26T20:15:12.549Z,146.83
2019-01-26T20:17:15.202Z,148.03
2019-01-26T20:20:08.795Z,128.97
2019-01-26T20:22:46.542Z,126.73
2019-01-26T20:25:25.865Z,135.10
2019-01-26T20:27:59.028Z,145.30
2019-01-26T20:30:38.484Z,140.27
2019-01-26T20:33:11.388Z,157.27
2019-01-26T20:35:44.138Z,138.40
2019-01-26T20:38:21.385Z,135.93
2019-01-26T20:40:57.441Z,120.37
2019-01-26T20:43:33.294Z,125.40
2019-01-26T20:46:11.808Z,130.03
2019-01-26T20:49:05.807Z,138.73
2019-01-26T20:51:42.971Z,176.77
2019-01-26T20:54:27.469Z,152.23
2019-01-26T20:57:01.303Z,157.80
2019-01-26T20:59:36.413Z,147.67
2019-01-26T21:02:09.576Z,145.70
2019-01-26T21:04:53.646Z,150.67
2019-01-26T21:08:21.262Z,140.13
2019-01-26T21:11:42.023Z,124.83
2019-01-26T21:14:51.331Z,145.00
2019-01-26T21:18:03.242Z,141.40
2019-01-26T21:20:51.075Z,140.57
2019-01-26T21:24:00.119Z,136.97
2019-01-26T21:27:17.106Z,130.37
2019-01-26T21:30:10.938Z,128.27
2019-01-26T21:33:12.348Z,144.43
2019-01-26T21:35:55.260Z,138.40
2019-01-26T21:38:45.446Z,141.40
2019-01-26T21:42:40.582Z,135.67
2019-01-26T21:45:04.266Z,120.83
2019-01-26T21:48:00.345Z,122.10
2019-01-26T21:50:32.030Z,123.13
2019-01-26T21:53:18.972Z,122.83
2019-01-26T21:55:52.618Z,115.70
2019-01-26T21:58:27.838Z,124.27
2019-01-26T22:01:00.073Z,140.83
2019-01-26T22:03:35.340Z,122.47
2019-01-26T22:06:20.526Z,120.77
2019-01-26T22:08:58.689Z,135.20
2019-01-26T22:11:37.423Z,120.33
2019-01-26T22:14:10.975Z,134.53
2019-01-26T22:16:43.580Z,151.77
2019-01-26T22:19:21.740Z,146.53
2019-01-26T22:21:55.162Z,136.70
2019-01-26T22:24:28.757Z,145.33
2019-01-26T22:27:01.057Z,126.40
2019-01-26T22:29:33.827Z,124.23
2019-01-26T22:32:06.675Z,119.33
2019-01-26T22:34:38.833Z,124.87
2019-01-26T22:37:10.940Z,118.73
2019-01-26T22:39:43.120Z,116.03
2019-01-26T22:42:15.291Z,122.07
2019-01-26T23:07:22.591Z,116.67
2019-01-26T23:11:00.225Z,117.80
2019-01-26T23:14:35.764Z,110.93
2019-01-26T23:18:00.188Z,121.93
2019-01-26T23:21:08.461Z,116.37
2019-01-26T23:24:21.871Z,118.70
2019-01-26T23:27:28.454Z,135.23
2019-01-26T23:30:42.718Z,134.30
2019-01-26T23:33:14.729Z,150.93
2019-01-26T23:35:46.836Z,135.00
2019-01-26T23:38:21.210Z,138.30
2019-01-26T23:40:55.503Z,152.53
2019-01-26T23:43:29.981Z,145.93
2019-01-26T23:46:02.159Z,134.60
2019-01-26T23:48:34.413Z,128.20
2019-01-26T23:51:06.485Z,127.23
2019-01-26T23:53:38.469Z,133.97
2019-01-26T23:56:10.608Z,129.17
2019-01-26T23:58:42.614Z,141.90
